Richmond Heights, OH

11:43 PM EDT on June 29, 2015 (GMT -0400)
Bob's Euclid weather station | | Change Station
CLOSE
Current Station
Personal Weather Station
Location: Euclid, OH
Elevation: 833 ft
Nearby Weather Stations

Elev 833 ft 41.57 °N, 81.52 °W | Updated 8 seconds ago

Overcast
Overcast
62.3 °F
Feels Like 62.3 °F
N
0.0
Wind Variable Wind from SE
Gusts 1.5 mph

Today
High -- | Low -- °F
--% Chance of Precip.
Yesterday
High -- | Low -- °F
Precip. -- in
5:54 AM 9:04 PM
Waxing Gibbous, 95% visible
Pressure 29.83 in
Visibility 10.0 miles
Clouds Overcast 4200 ft
Dew Point 61 °F
Humidity 94%
Rainfall 0.09 in
Snow Depth Not available.
UV 0.0 out of 12
Pollen 3.10 out of 12
Air Quality Not available.
Flu Activity Sporadic
METAR KBKL 300253Z AUTO 12011KT 10SM OVC042 19/14 A2983 RMK AO2 SLP099 T01890139 55004 TSNO

More Conditions Fewer Conditions

Pressure 29.83 in
Visibility 10.0 miles
Clouds Overcast 4200 ft
Dew Point 61 °F
Humidity 94%
Rainfall 0.09 in
Snow Depth Not available.
UV 0.0 out of 12
Pollen 3.10 out of 12
Air Quality Not available.
Flu Activity Sporadic
METAR KBKL 300253Z AUTO 12011KT 10SM OVC042 19/14 A2983 RMK AO2 SLP099 T01890139 55004 TSNO

More Conditions Fewer Conditions

Nowcast | as of 11:13 PM EDT on June 29, 2015

At 1104 PM EDT...Doppler radar indicated scattered showers over northeast Ohio and northwest Pennsylvania. The heaviest shower in northeast Ohio was...7 miles east of Chardon and in northwest Pennsylvania south of Meadville. The showers will be moving northeast at 30 mph. Locations impacted by the showers through 1am over northeast Ohio include... Painesville...Ashtabula...Conneaut...Chardon...Jefferson...Geneva-On-The-Lake... Mentor...and in northwest pennyslvania...Erie...Edinboro...Titusville... North East...and Union City.

×

10-Day Weather Forecast

×

Almanac

Astronomy

Jun. 29, 2015 Rise Set
Actual Time
Civil Twilight
Nautical Twilight
Astronomical Twilight
Moon
Length of Visible Light
Length of Day
Tomorrow will be .
, % of the Moon is Illuminated

Today's Extremes

State Highs State Lows

Community

WunderPhotos

Upload Photos

1,833,956 photos uploaded!

WunderBlogs® & News

Nearby

Air Quality

  Air Quality AQ Index Pollutant
Not available.

Snow Depth

Station Depth Elevation

Earthquake Activity

City Distance Mag. Time & Date
Minimum magnitude displayed is 2.5.

Coastal Water Temperatures

Place Temperature

Stations

Nearby Weather Stations

Station Location Temp. Windchill Dew Point Humidity Wind Precip. Elev Updated Type